Nagua, Dominican Republic
Current Conditions -  °F | °C
As of 8:00 PM on Saturday 20 Dec 2014 (Local Time) from MDCY Reporting Station
Few Clouds Few Clouds  
Wind Chill: 75°   Ceiling: Unl
Heat Index: 75°   Visibility: 6mi
Dew Point: 75°   Wind: 7mph
Humidity: 100%   Direction: 90°E
Pressure: 29.97"   Gusts: NA
Location:  19.38°N, 69.85°W
Report Text: MDCY 210000Z 09006KT 9999 FEW018 24/24 Q1015
Loading
Personal Weather Stations






























Interactive Weather Map New forecast layout! Learn more

10-Day Weather Forecast

Advertisements
Track Severe Weather on mobile